Bei Facebook empfehlenBei Twitter postenGoogle plusPinterest

Das Wetter im Erzgebirge am 27.04.2017

Wetter und Klima am 27.04.2017 Holzhau im Erzgebirge (630m ü.NN)
Letzte gemessene Temperatur und Uhrzeit der Messung23:45:00 Uhr0.90 °C
Temperatur (Maximum / Höchstwert) und Uhrzeit der Messung17:00:00 Uhr8.90 °C
Temperatur (Minimum / Tiefstwert) und Uhrzeit der Messung04:45:00-2.10 °C
Errechneter Absolutwert der Temperaturschwankungen zwischen Tmin und Tmax des Tages11.00 K
Errechnete Tagesmitteltemperatur3.47396 °C
Gesamt - Niederschlag des Tages (in flüssiger Form)0.00 Liter / m²
Luftdruck (Maximum / Höchstwert) und Zeitpunkt der Messung21:45:00 Uhr1011.10 hPa
Luftdruck (Minimum / Tiefstwert) und Zeitpunkt der Messung05:00:00 Uhr1007.50 hPa
Errechneter Absolutwert der Luftdruckschwankungen des Tages3.60 hPa
Höchste gemessene Windgeschwindigkeit und Uhrzeit der Messung23:45:00 Uhr6.12 km/h
Errechnete Windhäufigkeit in Relation zu den Messwerten des Tages9.37500 %
Niedrigste Windkühle (Windchill) und Zeitpunkt der Messung04:45:00 Uhr-2.10 °C
Taupunkt (Maximum / Höchstwert) und Uhrzeit der Messung09:45:00 Uhr3.80 °C
Taupunkt (Minimum / Tiefstwert) und Uhrzeit der Messung04:45:00-3.40 °C
Anzahl der automatisch eingelesenen Messwerte 96

Detaillierte Wetter- und Klima- Messwerte für den 27.04.2017 in Holzhau im Erzgebirge (630m ü.NN)
ZeitTemperaturLuftdruckRel. LuftfeuchteWindWindrichtungWindchillTaupunktNiederschlag l/m²
23:45:000.90 °C1010.50 hPa83.00 %6.12 km/hO-1.00 °C-1.70 °C 
23:30:000.90 °C1010.70 hPa83.00 %2.16 km/hOSO0.90 °C-1.70 °C 
23:15:000.90 °C1010.60 hPa82.00 %-1.80 °C 
23:00:001.10 °C1010.70 hPa82.00 %-1.60 °C 
22:45:001.00 °C1010.80 hPa81.00 %-1.90 °C 
22:30:001.10 °C1011.00 hPa81.00 %-1.80 °C 
22:15:001.10 °C1011.00 hPa79.00 %-2.10 °C 
22:00:001.30 °C1010.80 hPa78.00 %-2.10 °C 
21:45:001.60 °C1011.10 hPa77.00 %-2.00 °C 
21:30:002.10 °C1011.00 hPa75.00 %-1.90 °C 
21:15:002.40 °C1010.80 hPa75.00 %-1.60 °C 
21:00:002.70 °C1010.70 hPa72.00 %-1.80 °C 
20:45:003.20 °C1010.60 hPa71.00 %-1.50 °C 
20:30:003.60 °C1010.70 hPa69.00 %-1.50 °C 
20:15:004.20 °C1010.50 hPa67.00 %-1.40 °C 
20:00:005.00 °C1010.20 hPa65.00 %-1.00 °C 
19:45:005.80 °C1009.90 hPa61.00 %-1.10 °C 
19:30:006.40 °C1010.10 hPa58.00 %-1.20 °C 
19:15:006.60 °C1010.00 hPa56.00 %-1.50 °C 
19:00:007.10 °C1010.00 hPa55.00 %-1.30 °C 
18:45:007.30 °C1009.90 hPa55.00 %-1.10 °C 
18:30:007.60 °C1010.00 hPa55.00 %-0.80 °C 
18:15:007.90 °C1010.00 hPa54.00 %-0.80 °C 
18:00:008.40 °C1009.90 hPa53.00 %-0.60 °C 
17:45:008.30 °C1010.00 hPa55.00 %-0.20 °C 
17:30:008.40 °C1010.40 hPa52.00 %-0.90 °C 
17:15:008.70 °C1010.30 hPa52.00 %-0.60 °C 
17:00:008.90 °C1010.60 hPa54.00 %0.10 °C 
16:45:008.40 °C1010.50 hPa54.00 %-0.40 °C 
16:30:008.40 °C1010.70 hPa55.00 %4.32 km/hSO8.40 °C-0.10 °C 
16:15:008.50 °C1010.30 hPa53.00 %-0.50 °C 
16:00:008.80 °C1010.40 hPa56.00 %3.24 km/hOSO8.80 °C0.50 °C 
15:45:008.40 °C1010.70 hPa57.00 %0.40 °C 
15:30:008.20 °C1011.00 hPa57.00 %0.20 °C 
15:15:008.10 °C1010.80 hPa58.00 %1.80 km/hW8.10 °C0.30 °C 
15:00:007.80 °C1010.80 hPa57.00 %-0.20 °C 
14:45:008.20 °C1010.70 hPa57.00 %0.20 °C 
14:30:008.30 °C1010.50 hPa58.00 %1.80 km/hSO8.30 °C0.50 °C 
14:15:008.40 °C1010.90 hPa58.00 %0.60 °C 
14:00:008.50 °C1010.80 hPa59.00 %1.00 °C 
13:45:008.10 °C1010.70 hPa59.00 %0.60 °C 
13:30:008.30 °C1010.80 hPa58.00 %0.50 °C 
13:15:008.40 °C1010.70 hPa59.00 %0.90 °C 
13:00:008.70 °C1010.70 hPa59.00 %1.10 °C 
12:45:008.50 °C1010.60 hPa59.00 %1.00 °C 
12:30:008.40 °C1010.70 hPa61.00 %1.30 °C 
12:15:008.10 °C1010.70 hPa60.00 %3.96 km/hSSO8.10 °C0.80 °C 
12:00:007.60 °C1010.60 hPa62.00 %0.80 °C 
11:45:007.80 °C1010.60 hPa63.00 %1.20 °C 
11:30:007.90 °C1010.60 hPa63.00 %1.30 °C 
11:15:007.50 °C1010.30 hPa66.00 %1.60 °C 
11:00:007.40 °C1010.30 hPa67.00 %0.36 km/hSO7.40 °C1.70 °C 
10:45:007.90 °C1010.20 hPa67.00 %1.80 km/hSO7.90 °C2.20 °C 
10:30:007.80 °C1010.20 hPa72.00 %3.10 °C 
10:15:006.90 °C1009.90 hPa77.00 %3.20 °C 
10:00:006.10 °C1009.60 hPa81.00 %3.10 °C 
09:45:005.30 °C1009.60 hPa90.00 %3.80 °C 
09:30:003.90 °C1009.50 hPa92.00 %2.70 °C 
09:15:002.90 °C1009.60 hPa93.00 %1.90 °C 
09:00:002.10 °C1009.50 hPa93.00 %1.10 °C 
08:45:001.60 °C1009.50 hPa93.00 %0.60 °C 
08:30:001.40 °C1009.60 hPa93.00 %0.40 °C 
08:15:001.10 °C1009.00 hPa93.00 %0.10 °C 
08:00:000.60 °C1009.20 hPa94.00 %-0.30 °C 
07:45:000.30 °C1009.10 hPa94.00 %-0.50 °C 
07:30:00-0.10 °C1009.40 hPa94.00 %-1.00 °C 
07:15:00-0.40 °C1008.80 hPa94.00 %-1.30 °C 
07:00:00-0.80 °C1008.60 hPa93.00 %-1.90 °C 
06:45:00-1.10 °C1008.90 hPa93.00 %-2.20 °C 
06:30:00-1.20 °C1008.90 hPa93.00 %-2.30 °C 
06:15:00-1.20 °C1008.70 hPa93.00 %-2.30 °C 
06:00:00-1.40 °C1008.60 hPa93.00 %-2.50 °C 
05:45:00-1.60 °C1008.60 hPa93.00 %-2.70 °C 
05:30:00-1.60 °C1007.70 hPa93.00 %-2.70 °C 
05:15:00-1.90 °C1007.80 hPa93.00 %-3.00 °C 
05:00:00-1.90 °C1007.50 hPa92.00 %-3.20 °C 
04:45:00-2.10 °C1007.60 hPa92.00 %-3.40 °C 
04:30:00-1.70 °C1007.90 hPa92.00 %-3.00 °C 
04:15:00-1.40 °C1008.00 hPa92.00 %-2.70 °C 
04:00:00-1.10 °C1007.90 hPa92.00 %-2.40 °C 
03:45:00-0.90 °C1007.90 hPa92.00 %-2.20 °C 
03:30:00-0.70 °C1007.90 hPa92.00 %-2.00 °C 
03:15:00-0.70 °C1008.10 hPa92.00 %-2.00 °C 
03:00:00-0.80 °C1008.30 hPa92.00 %-2.10 °C 
02:45:00-0.70 °C1007.70 hPa92.00 %-2.00 °C 
02:30:00-0.70 °C1008.10 hPa92.00 %-2.00 °C 
02:15:00-0.80 °C1008.50 hPa92.00 %-2.10 °C 
02:00:00-0.80 °C1008.70 hPa92.00 %-2.10 °C 
01:45:00-0.90 °C1008.50 hPa92.00 %-2.20 °C 
01:30:00-1.00 °C1008.90 hPa92.00 %-2.30 °C 
01:15:00-1.20 °C1008.90 hPa92.00 %-2.50 °C 
01:00:00-1.50 °C1009.00 hPa91.00 %-2.90 °C 
00:45:00-1.50 °C1008.80 hPa91.00 %-2.90 °C 
00:30:00-1.40 °C1008.70 hPa91.00 %-2.80 °C 
00:15:00-1.30 °C1008.80 hPa91.00 %-2.70 °C 
00:00:00-1.20 °C1009.00 hPa91.00 %-2.60 °C 

Permanenter Link zu dieser Seite: Wetter im Erzgebirge am 27.04.2017
Performance-Info: Die Erstellung der Seite / Statistik(en) / Tabelle(n) erforderte 5 Datenbankserver-Abfrage(n) und dauerte 124 Millisekunden. (Dieser Messwert ist von der Gesamt-Auslastung des Servers abhängig.)
Erzgebirge - Wetter | Erzgebirge - Wetter (Mobilgeräte) | Komplette Klimadatenbank